createdAt,value
2018-05-12T00:00:25.338Z,13.10
2018-05-12T00:01:35.488Z,13.26
2018-05-12T00:02:41.690Z,13.32
2018-05-12T00:03:48.115Z,13.26
2018-05-12T00:04:55.149Z,13.28
2018-05-12T00:06:00.994Z,13.36
2018-05-12T00:07:07.308Z,13.36
2018-05-12T00:08:14.273Z,13.37
2018-05-12T00:09:20.572Z,13.42
2018-05-12T00:10:27.801Z,13.50
2018-05-12T00:11:34.719Z,13.47
2018-05-12T00:12:41.401Z,13.08
2018-05-12T00:13:47.722Z,12.92
2018-05-12T00:14:54.677Z,12.78
2018-05-12T00:16:01.123Z,12.91
2018-05-12T00:17:07.388Z,12.94
2018-05-12T00:18:13.707Z,12.88
2018-05-12T00:19:21.580Z,12.60
2018-05-12T00:20:28.179Z,12.34
2018-05-12T00:21:40.105Z,11.99
2018-05-12T00:22:47.289Z,11.88
2018-05-12T00:23:53.904Z,11.92
2018-05-12T00:25:00.230Z,12.15
2018-05-12T00:26:06.509Z,12.47
2018-05-12T00:27:14.074Z,12.68
2018-05-12T00:28:21.197Z,12.72
2018-05-12T00:29:27.506Z,12.74
2018-05-12T00:30:33.763Z,12.73
2018-05-12T00:31:39.990Z,12.72
2018-05-12T00:32:46.317Z,12.69
2018-05-12T00:33:53.270Z,12.65
2018-05-12T00:35:01.044Z,12.76
2018-05-12T00:36:07.574Z,12.79
2018-05-12T00:37:14.426Z,12.86
2018-05-12T00:38:22.244Z,12.75
2018-05-12T00:39:29.206Z,12.67
2018-05-12T00:40:35.505Z,12.58
2018-05-12T00:41:41.816Z,12.60
2018-05-12T00:42:48.346Z,12.83
2018-05-12T00:43:55.631Z,12.92
2018-05-12T00:45:03.990Z,13.03
2018-05-12T00:46:12.093Z,12.82
2018-05-12T00:47:18.546Z,12.54
2018-05-12T00:48:24.957Z,12.33
2018-05-12T00:49:31.257Z,12.18
2018-05-12T00:50:38.087Z,12.06
2018-05-12T00:51:45.277Z,11.93
2018-05-12T00:53:13.518Z,11.93
2018-05-12T00:54:19.776Z,11.85
2018-05-12T00:55:25.594Z,11.78
2018-05-12T00:56:32.986Z,11.79
2018-05-12T00:57:39.250Z,11.99
2018-05-12T00:58:45.570Z,12.07
2018-05-12T00:59:51.898Z,12.02
2018-05-12T01:00:58.561Z,11.98
2018-05-12T01:02:06.497Z,11.94
2018-05-12T01:03:15.016Z,12.07
2018-05-12T01:04:21.236Z,12.20
2018-05-12T01:05:27.705Z,12.35
2018-05-12T01:06:33.638Z,12.34
2018-05-12T01:07:40.463Z,12.26
2018-05-12T01:08:47.106Z,12.04
2018-05-12T01:09:53.413Z,12.07
2018-05-12T01:11:00.349Z,12.18
2018-05-12T01:12:05.600Z,12.30
2018-05-12T01:13:11.997Z,12.29
2018-05-12T01:14:17.990Z,12.15
2018-05-12T01:15:24.431Z,12.07
2018-05-12T01:16:30.630Z,12.05
2018-05-12T01:17:37.247Z,12.02
2018-05-12T01:18:43.817Z,11.99
2018-05-12T01:19:51.550Z,12.26
2018-05-12T01:20:58.147Z,12.45
2018-05-12T01:22:05.000Z,12.61
2018-05-12T01:23:11.501Z,12.78
2018-05-12T01:24:18.041Z,12.81
2018-05-12T01:25:24.852Z,12.79
2018-05-12T01:26:31.514Z,12.80
2018-05-12T01:27:38.456Z,12.81
2018-05-12T01:28:44.776Z,12.83
2018-05-12T01:29:51.606Z,12.82
2018-05-12T01:30:58.274Z,12.85
2018-05-12T01:32:04.326Z,12.89
2018-05-12T01:33:10.639Z,12.83
2018-05-12T01:34:17.900Z,12.60
2018-05-12T01:35:24.209Z,12.33
2018-05-12T01:36:30.658Z,12.12
2018-05-12T01:37:36.902Z,12.02
2018-05-12T01:38:43.233Z,12.10
2018-05-12T01:39:49.560Z,12.29
2018-05-12T01:40:56.332Z,12.48
2018-05-12T01:42:03.305Z,12.59
2018-05-12T01:43:09.642Z,12.64
2018-05-12T01:44:15.945Z,12.52
2018-05-12T01:45:22.451Z,12.70
2018-05-12T01:46:28.666Z,12.50
2018-05-12T01:47:35.085Z,12.27
2018-05-12T01:48:41.960Z,12.08
2018-05-12T01:49:48.317Z,12.11
2018-05-12T01:50:54.577Z,12.36
2018-05-12T01:52:03.304Z,12.49
2018-05-12T01:53:09.562Z,12.60
2018-05-12T01:54:16.101Z,12.49
2018-05-12T01:55:22.321Z,12.28
2018-05-12T01:56:28.652Z,12.04
2018-05-12T01:57:36.637Z,11.87
2018-05-12T01:58:43.545Z,11.77
2018-05-12T01:59:49.626Z,11.84
2018-05-12T02:00:56.577Z,12.13
2018-05-12T02:02:02.818Z,12.36
2018-05-12T02:03:09.694Z,12.52
2018-05-12T02:04:16.057Z,12.67
2018-05-12T02:05:23.686Z,12.83
2018-05-12T02:06:29.868Z,12.88
2018-05-12T02:07:36.413Z,12.86
2018-05-12T02:08:42.629Z,12.91
2018-05-12T02:09:50.513Z,12.92
2018-05-12T02:10:56.753Z,12.55
2018-05-12T02:12:03.030Z,12.45
2018-05-12T02:13:10.174Z,12.24
2018-05-12T02:14:17.522Z,12.15
2018-05-12T02:15:24.220Z,12.02
2018-05-12T02:16:30.496Z,11.95
2018-05-12T02:17:36.828Z,11.86
2018-05-12T02:18:43.152Z,11.81
2018-05-12T02:19:49.175Z,11.75
2018-05-12T02:20:55.486Z,11.79
2018-05-12T02:22:01.760Z,12.06
2018-05-12T02:23:08.008Z,12.28
2018-05-12T02:24:15.223Z,12.46
2018-05-12T02:25:21.558Z,12.46
2018-05-12T02:26:27.790Z,12.41
2018-05-12T02:27:34.942Z,12.44
2018-05-12T02:28:43.340Z,12.50
2018-05-12T02:29:50.307Z,12.34
2018-05-12T02:30:56.579Z,12.11
2018-05-12T02:32:02.558Z,12.00
2018-05-12T02:33:08.880Z,12.22
2018-05-12T02:34:15.191Z,12.18
2018-05-12T02:35:21.519Z,12.29
2018-05-12T02:36:27.727Z,12.43
2018-05-12T02:37:33.696Z,12.28
2018-05-12T02:38:40.009Z,12.28
2018-05-12T02:39:46.219Z,12.44
2018-05-12T02:40:52.275Z,12.38
2018-05-12T02:41:58.245Z,12.37
2018-05-12T02:43:04.350Z,12.01
2018-05-12T02:44:11.813Z,12.03
2018-05-12T02:45:18.206Z,11.86
2018-05-12T02:46:24.310Z,11.78
2018-05-12T02:47:30.627Z,11.64
2018-05-12T02:48:37.069Z,11.61
2018-05-12T02:49:43.340Z,11.57
2018-05-12T02:50:49.750Z,11.68
2018-05-12T02:51:55.989Z,11.90
2018-05-12T02:53:02.311Z,12.01
2018-05-12T02:54:08.617Z,12.24
2018-05-12T02:55:15.489Z,12.44
2018-05-12T02:56:22.441Z,12.58
2018-05-12T02:57:29.310Z,12.59
2018-05-12T02:58:35.614Z,12.65
2018-05-12T02:59:41.885Z,12.55
2018-05-12T03:00:48.229Z,12.66
2018-05-12T03:01:54.542Z,12.74
2018-05-12T03:03:00.873Z,12.47
2018-05-12T03:04:07.149Z,12.18
2018-05-12T03:05:14.036Z,11.89
2018-05-12T03:06:21.460Z,11.81
2018-05-12T03:07:27.813Z,11.67
2018-05-12T03:08:34.157Z,11.59
2018-05-12T03:09:40.444Z,11.50
2018-05-12T03:10:46.862Z,11.48
2018-05-12T03:11:53.182Z,11.44
2018-05-12T03:12:59.320Z,11.39
2018-05-12T03:14:05.681Z,11.39
2018-05-12T03:15:12.002Z,11.44
2018-05-12T03:16:18.353Z,11.44
2018-05-12T03:17:24.325Z,11.41
2018-05-12T03:18:30.653Z,11.57
2018-05-12T03:19:38.005Z,11.80
2018-05-12T03:20:45.259Z,11.91
2018-05-12T03:21:52.044Z,11.88
2018-05-12T03:22:58.330Z,11.77
2018-05-12T03:24:05.343Z,11.59
2018-05-12T03:25:11.682Z,11.62
2018-05-12T03:26:17.660Z,11.46
2018-05-12T03:27:24.127Z,11.57
2018-05-12T03:28:30.098Z,11.70
2018-05-12T03:29:37.329Z,11.60
2018-05-12T03:30:43.841Z,11.53
2018-05-12T03:31:50.163Z,11.42
2018-05-12T03:32:56.483Z,11.41
2018-05-12T03:34:02.888Z,11.55
2018-05-12T03:35:09.218Z,11.80
2018-05-12T03:36:16.530Z,11.97
2018-05-12T03:37:23.353Z,11.99
2018-05-12T03:38:30.602Z,11.83
2018-05-12T03:39:37.792Z,11.68
2018-05-12T03:40:44.309Z,11.81
2018-05-12T03:41:50.600Z,11.80
2018-05-12T03:42:56.649Z,11.65
2018-05-12T03:44:02.969Z,11.57
2018-05-12T03:45:09.047Z,11.51
2018-05-12T03:46:15.317Z,11.48
2018-05-12T03:47:21.589Z,11.52
2018-05-12T03:48:29.758Z,11.54
2018-05-12T03:49:36.074Z,11.47
2018-05-12T03:50:43.749Z,11.41
2018-05-12T03:51:51.079Z,11.32
2018-05-12T03:52:57.884Z,11.32
2018-05-12T03:54:04.215Z,11.26
2018-05-12T03:55:10.523Z,11.26
2018-05-12T03:56:16.820Z,11.25
2018-05-12T03:57:23.129Z,11.32
2018-05-12T03:58:29.565Z,11.38
2018-05-12T03:59:35.966Z,11.33
2018-05-12T04:00:42.323Z,11.36
2018-05-12T04:01:48.613Z,11.45
2018-05-12T04:02:54.882Z,11.60
2018-05-12T04:04:01.203Z,11.75
2018-05-12T04:05:18.355Z,11.66
2018-05-12T04:06:36.425Z,11.67
2018-05-12T04:07:53.778Z,11.81
2018-05-12T04:09:10.809Z,11.49
2018-05-12T04:10:19.912Z,11.68
2018-05-12T04:11:37.171Z,11.87
2018-05-12T04:12:43.940Z,12.07
2018-05-12T04:13:50.444Z,12.19
2018-05-12T04:14:56.673Z,12.27
2018-05-12T04:16:02.943Z,12.35
2018-05-12T04:17:09.297Z,12.01
2018-05-12T04:18:15.554Z,12.03
2018-05-12T04:19:21.884Z,11.76
2018-05-12T04:20:28.179Z,11.57
2018-05-12T04:21:34.437Z,11.47
2018-05-12T04:22:40.741Z,11.45
2018-05-12T04:23:47.037Z,11.45
2018-05-12T04:24:53.381Z,11.53
2018-05-12T04:26:00.545Z,11.57
2018-05-12T04:27:07.700Z,11.50
2018-05-12T04:28:14.634Z,11.49
2018-05-12T04:29:21.549Z,11.65
2018-05-12T04:30:27.595Z,11.56
2018-05-12T04:31:34.035Z,11.53
2018-05-12T04:32:40.331Z,11.59
2018-05-12T04:33:46.603Z,11.51
2018-05-12T04:34:52.944Z,11.49
2018-05-12T04:35:59.227Z,11.55
2018-05-12T04:37:05.531Z,11.51
2018-05-12T04:38:11.854Z,11.55
2018-05-12T04:39:18.244Z,11.55
2018-05-12T04:40:24.556Z,11.54
2018-05-12T04:41:30.897Z,11.53
2018-05-12T04:42:37.216Z,11.54
2018-05-12T04:43:44.153Z,11.53
2018-05-12T04:44:51.266Z,11.62
2018-05-12T04:45:57.560Z,11.65
2018-05-12T04:47:04.042Z,11.74
2018-05-12T04:48:11.270Z,11.66
2018-05-12T04:49:17.518Z,11.64
2018-05-12T04:50:23.878Z,11.72
2018-05-12T04:51:31.086Z,11.74
2018-05-12T04:52:37.399Z,11.71
2018-05-12T04:53:43.794Z,11.71
2018-05-12T04:54:50.134Z,11.81
2018-05-12T04:55:56.426Z,11.77
2018-05-12T04:57:02.753Z,11.81
2018-05-12T04:58:09.269Z,11.89
2018-05-12T04:59:15.574Z,11.87
2018-05-12T05:00:21.881Z,11.82
2018-05-12T05:01:29.730Z,12.00
2018-05-12T05:02:36.055Z,12.00
2018-05-12T05:03:42.536Z,12.00
2018-05-12T05:04:48.849Z,11.99
2018-05-12T05:05:55.201Z,11.97
2018-05-12T05:07:01.474Z,12.04
2018-05-12T05:08:07.859Z,12.07
2018-05-12T05:09:14.653Z,12.12
2018-05-12T05:10:21.676Z,12.03
2018-05-12T05:11:27.989Z,11.99
2018-05-12T05:12:33.938Z,12.02
2018-05-12T05:13:40.287Z,12.03
2018-05-12T05:14:46.591Z,12.00
2018-05-12T05:15:52.913Z,12.03
2018-05-12T05:16:59.149Z,12.18
2018-05-12T05:18:06.265Z,12.41
2018-05-12T05:19:17.038Z,12.57
2018-05-12T05:20:23.229Z,12.65
2018-05-12T05:21:29.481Z,12.73
2018-05-12T05:22:35.598Z,12.82
2018-05-12T05:23:42.010Z,12.74
2018-05-12T05:24:48.312Z,12.85
2018-05-12T05:25:54.605Z,12.95
2018-05-12T05:27:01.499Z,13.08
2018-05-12T05:28:08.424Z,13.14
2018-05-12T05:29:14.766Z,13.19
2018-05-12T05:30:21.109Z,12.99
2018-05-12T05:31:27.386Z,12.86
2018-05-12T05:32:33.722Z,12.87
2018-05-12T05:33:40.065Z,12.94
2018-05-12T05:34:46.265Z,13.10
2018-05-12T05:35:53.992Z,13.06
2018-05-12T05:37:00.197Z,13.05
2018-05-12T05:38:06.181Z,13.17
2018-05-12T05:39:12.626Z,13.26
2018-05-12T05:40:18.897Z,13.29
2018-05-12T05:41:25.141Z,13.22
2018-05-12T05:42:31.452Z,13.04
2018-05-12T05:43:37.763Z,13.16
2018-05-12T05:44:44.878Z,12.92
2018-05-12T05:45:51.235Z,12.94
2018-05-12T05:46:57.493Z,13.03
2018-05-12T05:48:03.852Z,12.89
2018-05-12T05:49:10.153Z,13.08
2018-05-12T05:50:16.154Z,13.17
2018-05-12T05:51:23.609Z,12.92
2018-05-12T05:52:31.755Z,13.07
2018-05-12T05:53:38.165Z,13.27
2018-05-12T05:54:44.418Z,13.19
2018-05-12T05:55:50.701Z,13.07
2018-05-12T05:56:57.169Z,13.07
2018-05-12T05:58:03.428Z,13.26
2018-05-12T05:59:09.934Z,13.35
2018-05-12T06:00:15.622Z,13.48
2018-05-12T06:01:21.901Z,13.61
2018-05-12T06:02:30.372Z,13.69
2018-05-12T06:03:38.088Z,13.75
2018-05-12T06:04:44.360Z,13.61
2018-05-12T06:05:51.429Z,13.70
2018-05-12T06:07:00.862Z,13.56
2018-05-12T06:08:09.255Z,13.32
2018-05-12T06:09:16.505Z,13.12
2018-05-12T06:10:23.920Z,13.33
2018-05-12T06:11:30.418Z,13.51
2018-05-12T06:12:37.145Z,13.56
2018-05-12T06:13:49.179Z,13.60
2018-05-12T06:14:57.701Z,13.67
2018-05-12T06:16:05.066Z,13.49
2018-05-12T06:17:12.524Z,13.44
2018-05-12T06:18:24.245Z,13.53
2018-05-12T06:19:34.329Z,13.55
2018-05-12T06:20:41.182Z,13.51
2018-05-12T06:21:50.662Z,13.62
2018-05-12T06:22:57.085Z,13.77
2018-05-12T06:24:04.045Z,13.77
2018-05-12T06:25:12.218Z,13.73
2018-05-12T06:26:19.637Z,13.87
2018-05-12T06:27:26.486Z,13.60
2018-05-12T06:28:34.701Z,13.45
2018-05-12T06:29:41.602Z,13.53
2018-05-12T06:30:49.340Z,13.68
2018-05-12T06:31:56.589Z,13.82
2018-05-12T06:33:03.403Z,13.90
2018-05-12T06:34:11.224Z,13.96
2018-05-12T06:35:18.194Z,13.94
2018-05-12T06:36:28.218Z,13.98
2018-05-12T06:37:36.735Z,14.06
2018-05-12T06:38:44.235Z,14.09
2018-05-12T06:39:51.306Z,13.93
2018-05-12T06:40:58.010Z,13.74
2018-05-12T06:42:05.785Z,13.85
2018-05-12T06:43:13.567Z,13.74
2018-05-12T06:44:22.898Z,13.93
2018-05-12T06:45:30.916Z,13.67
2018-05-12T06:46:38.079Z,13.78
2018-05-12T06:47:45.335Z,13.54
2018-05-12T06:48:52.973Z,13.60
2018-05-12T06:50:00.112Z,13.69
2018-05-12T06:51:09.154Z,13.86
2018-05-12T06:52:16.169Z,13.90
2018-05-12T06:53:23.160Z,14.06
2018-05-12T06:54:29.841Z,14.09
2018-05-12T06:55:37.818Z,13.96
2018-05-12T06:56:44.507Z,13.83
2018-05-12T06:57:51.125Z,13.88
2018-05-12T06:58:58.771Z,13.97
2018-05-12T07:00:07.942Z,13.94
2018-05-12T07:01:16.880Z,13.97
2018-05-12T07:02:23.619Z,14.06
2018-05-12T07:03:29.953Z,14.05
2018-05-12T07:04:36.247Z,14.17
2018-05-12T07:05:42.520Z,14.26
2018-05-12T07:06:49.318Z,14.35
2018-05-12T07:07:56.014Z,14.23
2018-05-12T07:09:03.473Z,14.23
2018-05-12T07:10:10.739Z,14.34
2018-05-12T07:11:17.664Z,14.38
2018-05-12T07:12:24.832Z,14.43
2018-05-12T07:13:31.706Z,14.56
2018-05-12T07:14:38.571Z,14.66
2018-05-12T07:15:45.519Z,14.74
2018-05-12T07:16:52.859Z,14.58
2018-05-12T07:17:59.476Z,14.54
2018-05-12T07:19:05.818Z,14.48
2018-05-12T07:20:12.653Z,14.50
2018-05-12T07:21:18.727Z,14.42
2018-05-12T07:22:25.926Z,14.52
2018-05-12T07:23:32.401Z,14.62
2018-05-12T07:24:39.192Z,14.54
2018-05-12T07:25:46.439Z,14.57
2018-05-12T07:26:53.755Z,14.60
2018-05-12T07:28:01.170Z,14.58
2018-05-12T07:29:08.329Z,14.64
2018-05-12T07:30:15.254Z,14.78
2018-05-12T07:31:22.467Z,14.95
2018-05-12T07:32:29.932Z,15.04
2018-05-12T07:33:38.069Z,15.15
2018-05-12T07:34:45.918Z,14.97
2018-05-12T07:35:52.225Z,14.98
2018-05-12T07:37:00.184Z,15.20
2018-05-12T07:38:07.212Z,15.17
2018-05-12T07:39:13.990Z,15.37
2018-05-12T07:40:21.300Z,15.54
2018-05-12T07:41:29.112Z,15.59
2018-05-12T07:42:35.783Z,15.28
2018-05-12T07:43:41.772Z,15.40
2018-05-12T07:44:48.148Z,15.54
2018-05-12T07:45:54.463Z,15.21
2018-05-12T07:47:00.722Z,15.09
2018-05-12T07:48:07.594Z,15.32
2018-05-12T07:49:14.679Z,15.51
2018-05-12T07:50:21.022Z,15.60
2018-05-12T07:51:27.238Z,15.50
2018-05-12T07:52:33.542Z,15.63
2018-05-12T07:53:39.831Z,15.70
2018-05-12T07:54:46.242Z,15.79
2018-05-12T07:55:52.585Z,15.55
2018-05-12T07:56:58.863Z,15.75
2018-05-12T07:58:05.397Z,15.89
2018-05-12T07:59:11.791Z,15.99
2018-05-12T08:00:18.139Z,15.92
2018-05-12T08:01:24.933Z,15.67
2018-05-12T08:02:31.252Z,15.87
2018-05-12T08:03:37.582Z,16.00
2018-05-12T08:04:44.123Z,16.09
2018-05-12T08:05:50.410Z,16.21
2018-05-12T08:06:56.702Z,16.31
2018-05-12T08:08:03.005Z,16.37
2018-05-12T08:09:09.351Z,16.46
2018-05-12T08:10:15.675Z,16.33
2018-05-12T08:11:24.617Z,16.33
2018-05-12T08:12:33.699Z,16.40
2018-05-12T08:13:43.235Z,16.14
2018-05-12T08:14:55.406Z,16.27
2018-05-12T08:16:04.859Z,16.37
2018-05-12T08:17:14.923Z,16.54
2018-05-12T08:18:23.066Z,16.63
2018-05-12T08:19:34.192Z,16.53
2018-05-12T08:20:43.449Z,16.64
2018-05-12T08:21:52.162Z,16.63
2018-05-12T08:23:04.598Z,16.74
2018-05-12T08:24:15.207Z,16.77
2018-05-12T08:25:23.309Z,16.74
2018-05-12T08:26:32.540Z,16.78
2018-05-12T08:27:41.581Z,16.84
2018-05-12T08:28:49.197Z,16.92
2018-05-12T08:29:58.722Z,16.75
2018-05-12T08:31:05.612Z,17.00
2018-05-12T08:32:11.820Z,17.17
2018-05-12T08:33:18.105Z,17.13
2018-05-12T08:34:24.365Z,16.97
2018-05-12T08:35:31.620Z,17.09
2018-05-12T08:36:39.321Z,17.33
2018-05-12T08:37:47.985Z,17.50
2018-05-12T08:38:56.830Z,17.61
2018-05-12T08:40:06.554Z,17.70
2018-05-12T08:41:15.152Z,17.77
2018-05-12T08:42:23.204Z,17.86
2018-05-12T08:43:31.851Z,17.99
2018-05-12T08:44:39.076Z,18.04
2018-05-12T08:45:45.508Z,18.09
2018-05-12T08:46:52.673Z,18.20
2018-05-12T08:47:59.703Z,17.97
2018-05-12T08:49:08.486Z,17.98
2018-05-12T08:50:15.335Z,17.98
2018-05-12T08:51:21.942Z,18.02
2018-05-12T08:52:28.282Z,17.68
2018-05-12T08:53:34.666Z,17.77
2018-05-12T08:54:40.906Z,17.85
2018-05-12T08:55:47.945Z,18.01
2018-05-12T08:56:54.371Z,18.04
2018-05-12T08:58:00.447Z,17.81
2018-05-12T08:59:06.995Z,17.98
2018-05-12T09:00:15.692Z,17.94
2018-05-12T09:01:26.646Z,17.69
2018-05-12T09:02:33.354Z,17.79
2018-05-12T09:03:40.438Z,17.99
2018-05-12T09:04:46.658Z,18.07
2018-05-12T09:05:53.060Z,18.11
2018-05-12T09:06:59.401Z,18.19
2018-05-12T09:08:05.618Z,18.28
2018-05-12T09:09:11.921Z,18.37
2018-05-12T09:10:18.149Z,18.43
2018-05-12T09:11:24.957Z,18.27
2018-05-12T09:12:31.218Z,18.24
2018-05-12T09:13:37.527Z,18.35
2018-05-12T09:14:43.875Z,18.44
2018-05-12T09:15:50.136Z,18.45
2018-05-12T09:16:56.556Z,18.27
2018-05-12T09:18:02.875Z,18.20
2018-05-12T09:19:10.770Z,18.46
2018-05-12T09:20:19.255Z,18.60
2018-05-12T09:21:26.309Z,18.76
2018-05-12T09:22:33.093Z,18.82
2018-05-12T09:23:39.466Z,18.93
2018-05-12T09:24:45.741Z,19.05
2018-05-12T09:25:51.855Z,19.23
2018-05-12T09:26:58.263Z,19.30
2018-05-12T09:28:04.737Z,19.31
2018-05-12T09:29:11.585Z,19.25
2018-05-12T09:30:18.618Z,19.26
2018-05-12T09:31:24.994Z,19.18
2018-05-12T09:32:31.290Z,19.14
2018-05-12T09:33:37.592Z,19.17
2018-05-12T09:34:44.819Z,19.23
2018-05-12T09:35:52.333Z,19.32
2018-05-12T09:36:58.602Z,19.30
2018-05-12T09:38:04.490Z,19.30
2018-05-12T09:39:10.790Z,19.31
2018-05-12T09:40:17.102Z,19.41
2018-05-12T09:41:23.446Z,19.54
2018-05-12T09:42:29.797Z,19.37
2018-05-12T09:43:36.225Z,19.52
2018-05-12T09:44:42.534Z,19.55
2018-05-12T09:45:48.852Z,19.73
2018-05-12T09:46:55.193Z,19.83
2018-05-12T09:48:02.241Z,19.98
2018-05-12T09:49:08.495Z,20.01
2018-05-12T09:50:15.413Z,20.03
2018-05-12T09:51:22.317Z,20.01
2018-05-12T09:52:28.690Z,19.99
2018-05-12T09:53:35.210Z,19.97
2018-05-12T09:54:41.526Z,19.95
2018-05-12T09:55:47.915Z,20.00
2018-05-12T09:56:54.253Z,20.09
2018-05-12T09:58:00.567Z,20.07
2018-05-12T09:59:06.769Z,20.03
2018-05-12T10:00:12.843Z,20.00
2018-05-12T10:01:19.158Z,20.07
2018-05-12T10:02:25.493Z,20.15
2018-05-12T10:03:31.764Z,20.20
2018-05-12T10:04:38.045Z,20.32
2018-05-12T10:05:44.304Z,20.35
2018-05-12T10:06:50.656Z,20.29
2018-05-12T10:07:56.904Z,20.36
2018-05-12T10:09:03.158Z,20.44
2018-05-12T10:10:09.481Z,20.44
2018-05-12T10:11:15.761Z,20.41
2018-05-12T10:12:22.151Z,20.21
2018-05-12T10:13:28.439Z,20.35
2018-05-12T10:14:34.702Z,20.44
2018-05-12T10:15:41.251Z,20.53
2018-05-12T10:16:47.761Z,20.54
2018-05-12T10:17:54.260Z,20.60
2018-05-12T10:19:00.607Z,20.70
2018-05-12T10:20:06.843Z,20.73
2018-05-12T10:21:12.858Z,20.80
2018-05-12T10:22:19.444Z,20.82
2018-05-12T10:23:25.959Z,20.81
2018-05-12T10:24:32.273Z,20.82
2018-05-12T10:25:38.552Z,20.29
2018-05-12T10:26:45.805Z,20.33
2018-05-12T10:27:52.972Z,20.52
2018-05-12T10:28:58.884Z,20.70
2018-05-12T10:30:05.097Z,20.72
2018-05-12T10:31:11.444Z,20.66
2018-05-12T10:32:17.776Z,20.61
2018-05-12T10:33:24.048Z,20.75
2018-05-12T10:34:30.390Z,20.78
2018-05-12T10:35:37.358Z,20.74
2018-05-12T10:36:43.623Z,20.77
2018-05-12T10:37:49.951Z,20.76
2018-05-12T10:38:56.296Z,20.79
2018-05-12T10:40:02.530Z,20.82
2018-05-12T10:41:10.264Z,20.88
2018-05-12T10:42:16.990Z,20.92
2018-05-12T10:43:23.815Z,20.94
2018-05-12T10:44:30.145Z,20.90
2018-05-12T10:45:36.473Z,20.86
2018-05-12T10:46:42.761Z,20.87
2018-05-12T10:47:49.118Z,20.94
2018-05-12T10:48:55.401Z,21.01
2018-05-12T10:50:01.683Z,21.02
2018-05-12T10:51:07.949Z,21.04
2018-05-12T10:52:14.234Z,21.07
2018-05-12T10:53:20.582Z,21.10
2018-05-12T10:54:26.877Z,21.14
2018-05-12T10:55:33.162Z,21.15
2018-05-12T10:56:40.116Z,21.13
2018-05-12T10:57:46.451Z,21.14
2018-05-12T10:58:52.956Z,21.07
2018-05-12T10:59:59.241Z,21.13
2018-05-12T11:01:05.539Z,21.18
2018-05-12T11:02:20.186Z,21.22
2018-05-12T11:03:26.595Z,21.09
2018-05-12T11:04:32.829Z,21.13
2018-05-12T11:05:39.091Z,20.98
2018-05-12T11:06:45.397Z,21.07
2018-05-12T11:07:52.217Z,21.09
2018-05-12T11:08:58.525Z,20.99
2018-05-12T11:10:04.828Z,21.10
2018-05-12T11:11:11.240Z,21.16
2018-05-12T11:12:17.455Z,21.22
2018-05-12T11:13:24.071Z,21.21
2018-05-12T11:14:31.017Z,21.33
2018-05-12T11:15:37.342Z,21.41
2018-05-12T11:16:43.582Z,21.44
2018-05-12T11:17:49.647Z,21.40
2018-05-12T11:18:55.935Z,21.47
2018-05-12T11:20:01.907Z,21.49
2018-05-12T11:21:08.172Z,21.46
2018-05-12T11:22:14.510Z,21.45
2018-05-12T11:23:21.017Z,21.36
2018-05-12T11:24:27.660Z,21.19
2018-05-12T11:25:35.894Z,21.30
2018-05-12T11:26:43.450Z,21.45
2018-05-12T11:27:49.954Z,21.49
2018-05-12T11:28:56.260Z,21.51
2018-05-12T11:30:02.596Z,21.57
2018-05-12T11:31:08.876Z,21.59
2018-05-12T11:32:15.206Z,21.59
2018-05-12T11:33:21.809Z,21.54
2018-05-12T11:34:28.641Z,21.54
2018-05-12T11:35:34.970Z,21.56
2018-05-12T11:36:41.256Z,21.50
2018-05-12T11:37:47.594Z,21.12
2018-05-12T11:38:54.044Z,21.34
2018-05-12T11:40:00.282Z,21.46
2018-05-12T11:41:06.920Z,21.52
2018-05-12T11:42:13.323Z,21.56
2018-05-12T11:43:19.763Z,21.56
2018-05-12T11:44:26.137Z,21.44
2018-05-12T11:45:32.587Z,21.55
2018-05-12T11:46:38.873Z,21.42
2018-05-12T11:47:45.219Z,21.28
2018-05-12T11:48:53.080Z,21.49
2018-05-12T11:49:59.819Z,21.68
2018-05-12T11:51:06.169Z,21.83
2018-05-12T11:52:12.440Z,21.85
2018-05-12T11:53:18.720Z,21.88
2018-05-12T11:54:25.272Z,21.78
2018-05-12T11:55:31.517Z,21.76
2018-05-12T11:56:37.950Z,21.78
2018-05-12T11:57:44.277Z,21.79
2018-05-12T11:58:50.591Z,21.79
2018-05-12T11:59:57.517Z,21.78
2018-05-12T12:01:03.798Z,21.79
2018-05-12T12:02:10.140Z,21.47
2018-05-12T12:03:16.463Z,21.59
2018-05-12T12:04:22.717Z,21.84
2018-05-12T12:05:29.946Z,22.00
2018-05-12T12:06:36.837Z,22.09
2018-05-12T12:07:43.099Z,22.12
2018-05-12T12:08:49.424Z,22.10
2018-05-12T12:09:55.732Z,22.08
2018-05-12T12:11:02.033Z,22.08
2018-05-12T12:12:08.342Z,22.13
2018-05-12T12:13:14.705Z,22.17
2018-05-12T12:14:21.755Z,22.24
2018-05-12T12:15:28.116Z,22.28
2018-05-12T12:16:34.444Z,22.35
2018-05-12T12:17:40.746Z,22.39
2018-05-12T12:18:47.228Z,22.41
2018-05-12T12:19:53.522Z,22.39
2018-05-12T12:21:00.414Z,22.32
2018-05-12T12:22:07.196Z,22.29
2018-05-12T12:23:13.638Z,22.28
2018-05-12T12:24:19.950Z,22.37
2018-05-12T12:25:26.271Z,22.43
2018-05-12T12:26:32.546Z,22.57
2018-05-12T12:27:39.003Z,22.61
2018-05-12T12:28:45.614Z,22.62
2018-05-12T12:29:51.882Z,22.68
2018-05-12T12:30:58.239Z,22.72
2018-05-12T12:32:04.483Z,22.77
2018-05-12T12:33:10.713Z,22.81
2018-05-12T12:34:17.060Z,22.81
2018-05-12T12:35:24.733Z,22.78
2018-05-12T12:36:31.447Z,22.86
2018-05-12T12:37:38.304Z,22.94
2018-05-12T12:38:44.345Z,22.93
2018-05-12T12:39:50.759Z,22.91
2018-05-12T12:40:56.820Z,22.94
2018-05-12T12:42:03.389Z,22.93
2018-05-12T12:43:09.678Z,22.72
2018-05-12T12:44:16.042Z,22.89
2018-05-12T12:45:22.438Z,22.94
2018-05-12T12:46:28.950Z,23.01
2018-05-12T12:47:35.232Z,23.09
2018-05-12T12:48:41.587Z,23.14
2018-05-12T12:49:47.901Z,23.11
2018-05-12T12:50:54.191Z,23.09
2018-05-12T12:52:00.500Z,23.07
2018-05-12T12:53:06.825Z,23.11
2018-05-12T12:54:13.147Z,23.10
2018-05-12T12:55:19.458Z,23.14
2018-05-12T12:56:25.949Z,23.24
2018-05-12T12:57:32.272Z,23.23
2018-05-12T12:58:38.606Z,23.18
2018-05-12T12:59:44.932Z,23.17
2018-05-12T13:00:51.158Z,23.07
2018-05-12T13:01:57.509Z,23.22
2018-05-12T13:03:03.483Z,23.28
2018-05-12T13:04:09.845Z,23.30
2018-05-12T13:05:16.163Z,23.15
2018-05-12T13:06:22.947Z,23.29
2018-05-12T13:07:29.261Z,23.33
2018-05-12T13:08:35.618Z,23.38
2018-05-12T13:09:41.942Z,23.46
2018-05-12T13:10:48.397Z,23.47
2018-05-12T13:11:54.727Z,23.52
2018-05-12T13:13:02.232Z,23.55
2018-05-12T13:14:08.972Z,23.47
2018-05-12T13:15:15.217Z,23.55
2018-05-12T13:16:22.092Z,23.58
2018-05-12T13:17:28.487Z,23.62
2018-05-12T13:18:35.377Z,23.64
2018-05-12T13:19:41.723Z,23.67
2018-05-12T13:20:48.014Z,23.69
2018-05-12T13:21:54.298Z,23.74
2018-05-12T13:23:01.193Z,23.81
2018-05-12T13:24:08.117Z,23.92
2018-05-12T13:25:14.526Z,23.98
2018-05-12T13:26:20.890Z,24.03
2018-05-12T13:27:28.013Z,24.04
2018-05-12T13:28:35.339Z,24.04
2018-05-12T13:29:42.369Z,24.09
2018-05-12T13:30:49.305Z,24.15
2018-05-12T13:31:55.613Z,24.22
2018-05-12T13:33:02.049Z,24.22
2018-05-12T13:34:08.855Z,24.29
2018-05-12T13:35:15.246Z,24.21
2018-05-12T13:36:21.817Z,24.18
2018-05-12T13:37:28.089Z,24.17
2018-05-12T13:38:34.394Z,24.24
2018-05-12T13:39:40.741Z,24.24
2018-05-12T13:40:46.997Z,24.24
2018-05-12T13:41:53.351Z,24.16
2018-05-12T13:42:59.650Z,23.79
2018-05-12T13:44:05.958Z,23.74
2018-05-12T13:45:12.301Z,23.91
2018-05-12T13:46:18.606Z,24.07
2018-05-12T13:47:24.929Z,24.15
2018-05-12T13:48:31.239Z,24.27
2018-05-12T13:49:37.541Z,24.38
2018-05-12T13:50:43.849Z,24.46
2018-05-12T13:51:50.130Z,24.53
2018-05-12T13:52:56.440Z,24.58
2018-05-12T13:54:02.798Z,24.53
2018-05-12T13:55:09.226Z,24.35
2018-05-12T13:56:15.520Z,24.16
2018-05-12T13:57:22.968Z,24.08
2018-05-12T13:58:29.432Z,24.14
2018-05-12T13:59:35.804Z,24.24
2018-05-12T14:00:42.069Z,24.25
2018-05-12T14:01:48.397Z,24.14
2018-05-12T14:02:54.717Z,24.23
2018-05-12T14:04:01.016Z,24.30
2018-05-12T14:05:07.347Z,24.31
2018-05-12T14:06:13.666Z,24.35
2018-05-12T14:07:19.986Z,24.35
2018-05-12T14:08:25.756Z,24.45
2018-05-12T14:09:32.147Z,24.48
2018-05-12T14:10:38.509Z,24.43
2018-05-12T14:11:44.784Z,24.43
2018-05-12T14:12:51.128Z,24.37
2018-05-12T14:13:57.349Z,24.33
2018-05-12T14:15:04.040Z,24.37
2018-05-12T14:16:10.436Z,24.37
2018-05-12T14:17:17.474Z,24.39
2018-05-12T14:18:23.772Z,24.31
2018-05-12T14:19:31.103Z,24.39
2018-05-12T14:20:38.650Z,24.42